Time;durP1;ratioP1;P1;durP2;ratioP2;P2;SDS_P1;SDS_P2;PMS_P1;PMS_P2;Temp;Humidity;BMP_temperature;BMP_pressure;BME280_temperature;BME280_humidity;BME280_pressure;Samples;Min_cycle;Max_cycle;Signal;HPM_P1;HPM_P2
2022/05/04 00:00:27;;;;;;;2.67;1.50;;;14.60;99.90;;;;;;1039664;28;20064;-67
2022/05/04 00:00:57;;;;;;;3.95;1.80;;;14.50;99.90;;;;;;1039151;28;20017;-67
2022/05/04 00:01:28;;;;;;;3.47;1.97;;;14.50;99.90;;;;;;1039486;28;20071;-67
2022/05/04 00:01:59;;;;;;;4.57;2.10;;;14.50;99.90;;;;;;1039448;28;20465;-69
2022/05/04 00:02:29;;;;;;;3.70;1.57;;;14.50;99.90;;;;;;1039635;28;20449;-67
2022/05/04 00:03:00;;;;;;;4.00;2.00;;;14.50;99.90;;;;;;1039528;28;20695;-67
2022/05/04 00:03:30;;;;;;;6.07;1.90;;;14.50;99.90;;;;;;1039822;28;20037;-67
2022/05/04 00:04:01;;;;;;;3.87;1.90;;;14.50;99.90;;;;;;1039465;28;20097;-67
2022/05/04 00:04:31;;;;;;;3.07;1.70;;;14.50;99.90;;;;;;1039604;28;20014;-67
2022/05/04 00:05:03;;;;;;;4.23;1.83;;;14.50;99.90;;;;;;1039518;28;20449;-67
2022/05/04 00:05:33;;;;;;;4.45;1.83;;;14.50;99.90;;;;;;1039619;28;20005;-68
2022/05/04 00:06:04;;;;;;;3.93;1.83;;;14.50;99.90;;;;;;1039717;28;20010;-70
2022/05/04 00:06:34;;;;;;;3.17;1.77;;;14.50;99.90;;;;;;1039370;28;20041;-67
2022/05/04 00:07:05;;;;;;;2.40;1.50;;;14.50;99.90;;;;;;1039083;28;20016;-67
2022/05/04 00:07:36;;;;;;;4.13;1.97;;;14.50;99.90;;;;;;1039427;28;20013;-66
2022/05/04 00:08:07;;;;;;;4.00;1.45;;;14.50;99.90;;;;;;1039098;28;20120;-66
2022/05/04 00:08:38;;;;;;;3.53;1.77;;;14.50;99.90;;;;;;1038849;28;20021;-67
2022/05/04 00:09:08;;;;;;;3.13;1.73;;;14.50;99.90;;;;;;1039143;28;20036;-67
2022/05/04 00:09:39;;;;;;;3.13;1.93;;;14.50;99.90;;;;;;1039171;28;20029;-66
2022/05/04 00:10:09;;;;;;;3.67;2.00;;;14.50;99.90;;;;;;1039694;28;20108;-67
2022/05/04 00:10:40;;;;;;;4.50;2.60;;;14.50;99.90;;;;;;1039464;28;20006;-68
2022/05/04 00:11:10;;;;;;;4.73;1.77;;;14.50;99.90;;;;;;1039684;28;20016;-68
2022/05/04 00:11:41;;;;;;;6.80;2.17;;;14.50;99.90;;;;;;1038888;28;20018;-68
2022/05/04 00:12:12;;;;;;;6.50;2.07;;;14.50;99.90;;;;;;1039494;28;20060;-66
2022/05/04 00:12:43;;;;;;;2.03;1.30;;;14.50;99.90;;;;;;1039050;28;20695;-66
2022/05/04 00:13:13;;;;;;;3.57;1.67;;;14.50;99.90;;;;;;1039490;28;20013;-66
2022/05/04 00:13:44;;;;;;;3.57;1.93;;;14.50;99.90;;;;;;1039386;28;20021;-67
2022/05/04 00:14:14;;;;;;;4.50;1.50;;;14.50;99.90;;;;;;1039717;28;20108;-68
2022/05/04 00:14:45;;;;;;;4.03;1.87;;;14.50;99.90;;;;;;1039441;28;20062;-66
2022/05/04 00:15:15;;;;;;;5.87;2.33;;;14.50;99.90;;;;;;1039658;28;20027;-68
2022/05/04 00:15:46;;;;;;;3.23;1.90;;;14.50;99.90;;;;;;1039201;28;20030;-68
2022/05/04 00:16:16;;;;;;;3.53;1.63;;;14.50;99.90;;;;;;1039469;28;20022;-67
2022/05/04 00:16:47;;;;;;;4.57;2.20;;;14.50;99.90;;;;;;1039403;28;20019;-67
2022/05/04 00:17:17;;;;;;;3.10;2.03;;;14.50;99.90;;;;;;1039333;28;20120;-68
2022/05/04 00:17:48;;;;;;;3.40;1.63;;;14.50;99.90;;;;;;1039078;28;20013;-67
2022/05/04 00:18:19;;;;;;;3.17;1.60;;;14.50;99.90;;;;;;1039108;28;20392;-67
2022/05/04 00:18:50;;;;;;;4.68;2.22;;;14.50;99.90;;;;;;1035067;28;20272;-67
2022/05/04 00:19:20;;;;;;;4.43;1.47;;;14.50;99.90;;;;;;1031154;28;20014;-69
2022/05/04 00:19:51;;;;;;;3.63;1.60;;;14.50;99.90;;;;;;1031169;28;20015;-67
2022/05/04 00:20:22;;;;;;;5.43;1.70;;;14.50;99.90;;;;;;1035319;28;20425;-68
2022/05/04 00:20:52;;;;;;;3.03;1.53;;;14.50;99.90;;;;;;1035109;28;20014;-68
2022/05/04 00:21:23;;;;;;;5.07;1.80;;;14.50;99.90;;;;;;1039276;28;20079;-67
2022/05/04 00:21:53;;;;;;;4.87;1.67;;;14.50;99.90;;;;;;1035076;28;20018;-67
2022/05/04 00:22:25;;;;;;;6.50;2.10;;;14.50;99.90;;;;;;1039366;28;20018;-68
2022/05/04 00:22:56;;;;;;;5.38;2.40;;;14.50;99.90;;;;;;1039151;28;20021;-67
2022/05/04 00:23:27;;;;;;;3.80;1.67;;;14.50;99.90;;;;;;1039108;28;20025;-67
2022/05/04 00:23:57;;;;;;;4.65;1.60;;;14.50;99.90;;;;;;1039126;28;20041;-67
2022/05/04 00:24:28;;;;;;;5.10;2.10;;;14.50;99.90;;;;;;1039418;28;20022;-67
2022/05/04 00:24:58;;;;;;;5.23;1.87;;;14.50;99.90;;;;;;1039124;28;20631;-69
2022/05/04 00:25:29;;;;;;;3.87;1.80;;;14.50;99.90;;;;;;1039315;28;20481;-67
2022/05/04 00:25:59;;;;;;;6.27;2.37;;;14.50;99.90;;;;;;1039223;28;20571;-67
2022/05/04 00:26:30;;;;;;;4.93;2.10;;;14.50;99.90;;;;;;1039211;28;20037;-67
2022/05/04 00:27:01;;;;;;;4.77;1.97;;;14.50;99.90;;;;;;1039300;28;20467;-67
2022/05/04 00:27:31;;;;;;;3.00;1.70;;;14.50;99.90;;;;;;1039715;28;20731;-67
2022/05/04 00:28:04;;;;;;;4.57;1.97;;;14.50;99.90;;;;;;1039439;28;20045;-67
2022/05/04 00:28:35;;;;;;;5.03;2.05;;;14.50;99.90;;;;;;1039167;28;20256;-67
2022/05/04 00:29:05;;;;;;;2.80;1.53;;;14.50;99.90;;;;;;1039080;28;20013;-67
2022/05/04 00:29:36;;;;;;;4.20;1.80;;;14.50;99.90;;;;;;1039027;28;20010;-67
2022/05/04 00:30:07;;;;;;;4.43;2.00;;;14.50;99.90;;;;;;1039104;28;20105;-67
2022/05/04 00:30:38;;;;;;;3.08;1.65;;;14.50;99.90;;;;;;1038938;28;20127;-68
2022/05/04 00:31:08;;;;;;;5.33;1.93;;;14.40;99.90;;;;;;1039047;28;20052;-67
2022/05/04 00:31:39;;;;;;;5.60;1.60;;;14.40;99.90;;;;;;1039031;28;20049;-68
2022/05/04 00:32:11;;;;;;;3.40;1.93;;;14.40;99.90;;;;;;1039087;28;20029;-67
2022/05/04 00:32:42;;;;;;;3.75;2.13;;;14.40;99.90;;;;;;1039246;28;20495;-67
2022/05/04 00:33:12;;;;;;;4.33;1.73;;;14.40;99.90;;;;;;1039165;28;20775;-67
2022/05/04 00:33:44;;;;;;;6.37;1.77;;;14.40;99.90;;;;;;1038933;28;20526;-69
2022/05/04 00:34:15;;;;;;;3.80;1.70;;;14.40;99.90;;;;;;1039347;28;20628;-67
2022/05/04 00:34:45;;;;;;;3.90;1.67;;;14.40;99.90;;;;;;1039029;28;20715;-67
2022/05/04 00:35:16;;;;;;;5.07;2.10;;;14.40;99.90;;;;;;1039888;28;20017;-68
2022/05/04 00:35:46;;;;;;;2.17;1.43;;;14.40;99.90;;;;;;1039365;28;20536;-67
2022/05/04 00:36:17;;;;;;;2.77;1.40;;;14.40;99.90;;;;;;1039639;28;20499;-67
2022/05/04 00:36:47;;;;;;;3.47;1.87;;;14.40;99.90;;;;;;1039437;28;20014;-67
2022/05/04 00:37:18;;;;;;;3.90;1.80;;;14.40;99.90;;;;;;1039563;28;20156;-67
2022/05/04 00:37:48;;;;;;;3.17;1.83;;;14.40;99.90;;;;;;1039598;28;20021;-67
2022/05/04 00:38:19;;;;;;;3.60;1.70;;;14.40;99.90;;;;;;1039615;28;20025;-66
2022/05/04 00:38:49;;;;;;;3.03;1.73;;;14.40;99.90;;;;;;1039309;28;20101;-66
2022/05/04 00:39:20;;;;;;;3.90;2.00;;;14.40;99.90;;;;;;1039158;28;20033;-67
2022/05/04 00:39:51;;;;;;;4.03;1.80;;;14.40;99.90;;;;;;1039240;28;20021;-66
2022/05/04 00:40:21;;;;;;;3.40;1.73;;;14.40;99.90;;;;;;1035063;28;20448;-68
2022/05/04 00:40:52;;;;;;;2.53;1.60;;;14.40;99.90;;;;;;1035304;28;20135;-67
2022/05/04 00:41:22;;;;;;;3.30;1.80;;;14.30;99.90;;;;;;1039210;28;20022;-68
2022/05/04 00:41:53;;;;;;;3.63;1.67;;;14.40;99.90;;;;;;1034977;28;20516;-66
2022/05/04 00:42:23;;;;;;;4.07;1.97;;;14.40;99.90;;;;;;1034816;28;20091;-67
2022/05/04 00:42:54;;;;;;;3.47;1.93;;;14.30;99.90;;;;;;1034782;28;20006;-67
2022/05/04 00:43:26;;;;;;;3.93;1.97;;;14.30;99.90;;;;;;1035222;28;20704;-66
2022/05/04 00:43:56;;;;;;;3.88;1.77;;;14.30;99.90;;;;;;1039175;28;20465;-66
2022/05/04 00:44:27;;;;;;;2.90;1.70;;;14.30;99.90;;;;;;1039407;28;20530;-67
2022/05/04 00:44:57;;;;;;;6.27;2.30;;;14.30;99.90;;;;;;1039550;28;20457;-68
2022/05/04 00:45:28;;;;;;;4.60;2.00;;;14.30;99.90;;;;;;1039563;28;20092;-67
2022/05/04 00:45:58;;;;;;;7.00;2.13;;;14.30;99.90;;;;;;1039445;28;20035;-68
2022/05/04 00:46:29;;;;;;;3.17;1.63;;;14.30;99.90;;;;;;1039485;28;20033;-67
2022/05/04 00:47:00;;;;;;;3.63;1.87;;;14.30;99.90;;;;;;1039009;28;20052;-67
2022/05/04 00:47:31;;;;;;;5.40;2.25;;;14.30;99.90;;;;;;1039195;28;20361;-66
2022/05/04 00:48:02;;;;;;;3.57;2.07;;;14.30;99.90;;;;;;1039236;28;20502;-66
2022/05/04 00:48:32;;;;;;;5.83;2.30;;;14.30;99.90;;;;;;1039155;28;20189;-66
2022/05/04 00:49:03;;;;;;;5.37;2.27;;;14.30;99.90;;;;;;1038851;28;20108;-65
2022/05/04 00:49:34;;;;;;;5.13;1.67;;;14.30;99.90;;;;;;1039023;28;20495;-66
2022/05/04 00:50:07;;;;;;;3.65;1.67;;;14.30;99.90;;;;;;1039114;28;20014;-66
2022/05/04 00:50:37;;;;;;;5.72;2.08;;;14.30;99.90;;;;;;1038671;28;20052;-67
2022/05/04 00:51:08;;;;;;;4.90;2.27;;;14.30;99.90;;;;;;1035077;28;20010;-67
2022/05/04 00:51:38;;;;;;;2.63;1.63;;;14.30;99.90;;;;;;1035001;28;20053;-68
2022/05/04 00:52:11;;;;;;;3.43;1.50;;;14.30;99.90;;;;;;1035069;28;20132;-67
2022/05/04 00:52:43;;;;;;;5.15;2.17;;;14.30;99.90;;;;;;1035144;28;20668;-67
2022/05/04 00:53:15;;;;;;;3.95;2.05;;;14.30;99.90;;;;;;1035209;28;20018;-66
2022/05/04 00:53:46;;;;;;;3.60;1.45;;;14.30;99.90;;;;;;1035009;28;20018;-66
2022/05/04 00:54:17;;;;;;;4.93;2.03;;;14.30;99.90;;;;;;1035160;28;20109;-66
2022/05/04 00:54:50;;;;;;;2.95;1.58;;;14.30;99.90;;;;;;1035003;28;20018;-69
2022/05/04 00:55:21;;;;;;;7.18;1.90;;;14.30;99.90;;;;;;1035299;28;20021;-66
2022/05/04 00:55:53;;;;;;;3.03;1.60;;;14.30;99.90;;;;;;1035478;28;20036;-66
2022/05/04 00:56:24;;;;;;;3.25;1.83;;;14.30;99.90;;;;;;1035334;28;20029;-65
2022/05/04 00:56:55;;;;;;;7.03;2.17;;;14.30;99.90;;;;;;1034959;28;20049;-67
2022/05/04 00:59:07;;;;;;;3.28;1.90;;;14.30;99.90;;;;;;1035473;28;20036;-66
2022/05/04 00:59:38;;;;;;;5.63;1.92;;;14.30;99.90;;;;;;1035177;28;20010;-67
2022/05/04 01:00:10;;;;;;;6.57;1.98;;;14.30;99.90;;;;;;1035515;28;20113;-67
2022/05/04 01:00:41;;;;;;;3.80;1.80;;;14.30;99.90;;;;;;1035197;28;20014;-66
2022/05/04 01:01:12;;;;;;;5.37;2.23;;;14.30;99.90;;;;;;1035561;28;20049;-65
2022/05/04 01:01:43;;;;;;;4.53;2.13;;;14.30;99.90;;;;;;1034769;28;20535;-67
2022/05/04 01:02:14;;;;;;;4.80;1.80;;;14.30;99.90;;;;;;1031093;28;20068;-68
2022/05/04 01:02:44;;;;;;;4.97;2.43;;;14.30;99.90;;;;;;1030790;28;20018;-66
2022/05/04 01:03:15;;;;;;;3.63;2.00;;;14.30;99.90;;;;;;1031161;28;20105;-66
2022/05/04 01:03:45;;;;;;;4.77;2.20;;;14.30;99.90;;;;;;1026832;28;20027;-67
2022/05/04 01:04:18;;;;;;;7.10;2.47;;;14.30;99.90;;;;;;1027188;28;20027;-67
2022/05/04 01:04:48;;;;;;;2.78;1.70;;;14.30;99.90;;;;;;1030838;28;20058;-67
2022/05/04 01:05:19;;;;;;;3.50;1.80;;;14.30;99.90;;;;;;1027282;28;20034;-68
2022/05/04 01:05:50;;;;;;;3.70;1.70;;;14.30;99.90;;;;;;1031400;28;20022;-67
2022/05/04 01:06:21;;;;;;;5.03;1.77;;;14.30;99.90;;;;;;1031003;28;20056;-68
2022/05/04 01:06:52;;;;;;;6.03;2.53;;;14.30;99.90;;;;;;1031179;28;20055;-68
2022/05/04 01:07:23;;;;;;;2.97;1.60;;;14.30;99.90;;;;;;1035076;28;20096;-68
2022/05/04 01:07:54;;;;;;;3.60;1.73;;;14.20;99.90;;;;;;1035039;28;20025;-69
2022/05/04 01:08:25;;;;;;;5.17;1.90;;;14.20;99.90;;;;;;1035371;28;20100;-67
2022/05/04 01:08:55;;;;;;;3.80;1.52;;;14.20;99.90;;;;;;1035433;28;20388;-67
2022/05/04 01:09:26;;;;;;;4.80;2.07;;;14.20;99.90;;;;;;1035254;28;20026;-67
2022/05/04 01:09:57;;;;;;;3.97;1.93;;;14.20;99.90;;;;;;1035424;28;20022;-68
2022/05/04 01:10:27;;;;;;;5.97;2.60;;;14.20;99.90;;;;;;1035378;28;20018;-67
2022/05/04 01:10:58;;;;;;;3.40;1.90;;;14.20;99.90;;;;;;1035329;28;20307;-67
2022/05/04 01:11:29;;;;;;;4.07;1.93;;;14.20;99.90;;;;;;1034872;28;20072;-67
2022/05/04 01:12:00;;;;;;;4.50;1.92;;;14.20;99.90;;;;;;1034912;28;20422;-67
2022/05/04 01:12:31;;;;;;;2.73;1.67;;;14.20;99.90;;;;;;1030979;28;20427;-67
2022/05/04 01:13:02;;;;;;;5.38;2.25;;;14.20;99.90;;;;;;1031284;28;20145;-67
2022/05/04 01:13:32;;;;;;;3.97;1.90;;;14.20;99.90;;;;;;1034906;28;20392;-67
2022/05/04 01:14:08;;;;;;;5.27;1.83;;;14.20;99.90;;;;;;1035212;28;20038;-65
2022/05/04 01:14:39;;;;;;;5.07;1.88;;;14.20;99.90;;;;;;1037906;28;20100;-68
2022/05/04 01:15:10;;;;;;;6.20;2.10;;;14.20;99.90;;;;;;1039446;28;20018;-67
2022/05/04 01:15:41;;;;;;;3.28;1.80;;;14.20;99.90;;;;;;1039318;28;20009;-66
2022/05/04 01:16:11;;;;;;;6.55;2.00;;;14.20;99.90;;;;;;1038799;28;20467;-66
2022/05/04 01:16:45;;;;;;;4.73;2.10;;;14.20;99.90;;;;;;1034801;28;20437;-66
2022/05/04 01:17:15;;;;;;;4.25;1.98;;;14.20;99.90;;;;;;1035199;28;20014;-67
2022/05/04 01:17:47;;;;;;;2.33;1.57;;;14.20;99.90;;;;;;1035236;28;20010;-66
2022/05/04 01:18:18;;;;;;;4.13;1.90;;;14.10;99.90;;;;;;1035775;28;20021;-67
2022/05/04 01:18:49;;;;;;;2.67;1.60;;;14.20;99.90;;;;;;1034907;28;20045;-68
2022/05/04 01:19:20;;;;;;;2.60;1.50;;;14.20;99.90;;;;;;1035055;28;20014;-67
2022/05/04 01:19:50;;;;;;;4.63;1.70;;;14.20;99.90;;;;;;1035160;28;20002;-68
2022/05/04 01:20:24;;;;;;;3.83;2.30;;;14.20;99.90;;;;;;1039794;28;20048;-67
2022/05/04 01:20:55;;;;;;;4.85;2.10;;;14.20;99.90;;;;;;1039790;28;20453;-67
2022/05/04 01:21:26;;;;;;;4.10;2.10;;;14.10;99.90;;;;;;1039756;28;20380;-67
2022/05/04 01:21:56;;;;;;;2.93;1.77;;;14.10;99.90;;;;;;1035205;28;20013;-66
2022/05/04 01:22:27;;;;;;;5.43;2.00;;;14.10;99.90;;;;;;1031958;28;20336;-67
2022/05/04 01:22:57;;;;;;;3.50;1.77;;;14.10;99.90;;;;;;1031864;28;20066;-67
2022/05/04 01:23:28;;;;;;;4.80;1.70;;;14.10;99.90;;;;;;1035629;28;20118;-67
2022/05/04 01:23:59;;;;;;;4.03;2.00;;;14.10;99.90;;;;;;1035893;28;20045;-67
2022/05/04 01:24:30;;;;;;;5.20;1.85;;;14.10;99.90;;;;;;1039972;28;20060;-67
2022/05/04 01:25:00;;;;;;;3.97;1.90;;;14.10;99.90;;;;;;1035828;28;20068;-67
2022/05/04 01:25:31;;;;;;;4.93;2.23;;;14.10;99.90;;;;;;1039941;28;20028;-67
2022/05/04 01:26:04;;;;;;;4.47;1.90;;;14.10;99.90;;;;;;1039877;28;20017;-66
2022/05/04 01:26:34;;;;;;;3.90;2.03;;;14.10;99.90;;;;;;1039942;28;20014;-66
2022/05/04 01:27:11;;;;;;;4.90;2.10;;;14.10;99.90;;;;;;1039924;28;20006;-66
2022/05/04 01:27:42;;;;;;;9.88;2.55;;;14.10;99.90;;;;;;1040134;28;20431;-67
2022/05/04 01:28:12;;;;;;;2.37;1.57;;;14.10;99.90;;;;;;1040377;28;20373;-66
2022/05/04 01:28:44;;;;;;;4.37;2.00;;;14.10;99.90;;;;;;1040063;28;20252;-66
2022/05/04 01:29:14;;;;;;;3.67;2.10;;;14.10;99.90;;;;;;1039815;28;20017;-67
2022/05/04 01:29:47;;;;;;;5.00;2.00;;;14.10;99.90;;;;;;1039750;28;20089;-67
2022/05/04 01:30:17;;;;;;;4.10;2.17;;;14.10;99.90;;;;;;1039801;28;20096;-67
2022/05/04 01:30:48;;;;;;;3.40;1.77;;;14.10;99.90;;;;;;1040032;28;20024;-68
2022/05/04 01:31:18;;;;;;;3.17;1.57;;;14.10;99.90;;;;;;1040315;28;20018;-67
2022/05/04 01:31:49;;;;;;;4.07;1.77;;;14.10;99.90;;;;;;1040121;28;20453;-68
2022/05/04 01:32:20;;;;;;;5.93;2.13;;;14.10;99.90;;;;;;1040237;28;20028;-68
2022/05/04 01:32:50;;;;;;;5.60;2.10;;;14.10;99.90;;;;;;1039890;28;20469;-67
2022/05/04 01:33:21;;;;;;;6.93;1.97;;;14.10;99.90;;;;;;1039511;28;20469;-65
2022/05/04 01:33:52;;;;;;;4.93;1.63;;;14.10;99.90;;;;;;1039821;28;20086;-65
2022/05/04 01:34:26;;;;;;;2.80;1.90;;;14.10;99.90;;;;;;1039610;28;20044;-66
2022/05/04 01:34:57;;;;;;;3.28;1.63;;;14.10;99.90;;;;;;1040208;28;20514;-65
2022/05/04 01:35:27;;;;;;;4.90;2.00;;;14.10;99.90;;;;;;1039906;28;20492;-66
2022/05/04 01:35:58;;;;;;;4.47;2.00;;;14.10;99.90;;;;;;1040201;28;20056;-66
2022/05/04 01:36:28;;;;;;;6.07;2.00;;;14.10;99.90;;;;;;1040030;28;20022;-67
2022/05/04 01:37:00;;;;;;;3.63;1.50;;;14.10;99.90;;;;;;1040126;28;20072;-65
2022/05/04 01:37:31;;;;;;;6.30;2.08;;;14.10;99.90;;;;;;1039800;28;20444;-68
2022/05/04 01:38:02;;;;;;;4.27;2.00;;;14.10;99.90;;;;;;1039977;28;20441;-65
2022/05/04 01:38:33;;;;;;;4.83;2.07;;;14.00;99.90;;;;;;1039671;28;20108;-68
2022/05/04 01:39:03;;;;;;;7.82;2.05;;;14.00;99.90;;;;;;1043955;28;20028;-66
2022/05/04 01:39:34;;;;;;;6.17;1.90;;;14.10;99.90;;;;;;1044001;28;20032;-67
2022/05/04 01:40:05;;;;;;;5.03;2.13;;;14.10;99.90;;;;;;1039798;28;20036;-66
2022/05/04 01:40:36;;;;;;;4.63;2.25;;;14.10;99.90;;;;;;1040000;28;20256;-66
2022/05/04 01:42:02;;;;;;;4.13;2.23;;;14.10;99.90;;;;;;1043946;28;20023;-65
2022/05/04 01:42:03;;;;;;;5.70;2.15;;;14.00;99.90;;;;;;1043925;28;20090;-67
2022/05/04 01:42:33;;;;;;;4.35;1.77;;;14.00;99.90;;;;;;1039553;28;20144;-66
2022/05/04 01:43:04;;;;;;;3.27;1.70;;;14.00;99.90;;;;;;1039579;28;20025;-66
2022/05/04 01:43:34;;;;;;;3.07;2.03;;;14.00;99.90;;;;;;1040003;28;20396;-66
2022/05/04 01:44:05;;;;;;;4.80;2.33;;;14.00;99.90;;;;;;1039629;28;20022;-66
2022/05/04 01:44:36;;;;;;;4.80;2.10;;;14.00;99.90;;;;;;1039808;28;20043;-66
2022/05/04 01:45:08;;;;;;;4.10;1.93;;;14.00;99.90;;;;;;1039889;28;20048;-67
2022/05/04 01:45:39;;;;;;;3.28;1.92;;;14.00;99.90;;;;;;1039670;28;20013;-67
2022/05/04 01:46:09;;;;;;;3.83;1.70;;;14.00;99.90;;;;;;1039981;28;20095;-67
2022/05/04 01:46:40;;;;;;;4.40;1.60;;;14.00;99.90;;;;;;1040032;28;20010;-67
2022/05/04 01:47:11;;;;;;;4.10;1.80;;;14.00;99.90;;;;;;1040302;28;20175;-67
2022/05/04 01:47:47;;;;;;;4.65;1.92;;;14.00;99.90;;;;;;1039844;28;20473;-65
2022/05/04 01:48:19;;;;;;;3.38;1.73;;;14.00;99.90;;;;;;1039830;28;20040;-66
2022/05/04 01:48:49;;;;;;;4.47;1.70;;;14.00;99.90;;;;;;1039615;28;20014;-66
2022/05/04 01:49:20;;;;;;;4.07;2.10;;;14.00;99.90;;;;;;1039788;28;20018;-67
2022/05/04 01:49:50;;;;;;;5.03;2.03;;;14.00;99.90;;;;;;1039712;28;20486;-67
2022/05/04 01:50:21;;;;;;;4.87;1.80;;;14.00;99.90;;;;;;1039751;28;20457;-66
2022/05/04 01:50:52;;;;;;;5.60;2.30;;;14.00;99.90;;;;;;1036025;28;20634;-66
2022/05/04 01:51:22;;;;;;;3.73;1.87;;;14.00;99.90;;;;;;1036005;28;20116;-66
2022/05/04 01:51:53;;;;;;;4.00;1.80;;;14.00;99.90;;;;;;1036025;28;20029;-66
2022/05/04 01:52:25;;;;;;;5.00;1.67;;;14.00;99.90;;;;;;1035942;28;20026;-65
2022/05/04 01:52:56;;;;;;;3.25;1.92;;;14.00;99.90;;;;;;1035998;28;20049;-66
2022/05/04 01:53:26;;;;;;;4.93;1.83;;;14.00;99.90;;;;;;1035832;28;20045;-66
2022/05/04 01:53:57;;;;;;;2.43;1.40;;;14.00;99.90;;;;;;1036140;28;20454;-66
2022/05/04 01:54:27;;;;;;;5.23;1.77;;;14.00;99.90;;;;;;1036119;28;20403;-67
2022/05/04 01:55:01;;;;;;;3.60;1.90;;;14.00;99.90;;;;;;1036082;28;20775;-67
2022/05/04 01:55:35;;;;;;;3.95;2.20;;;14.00;99.90;;;;;;1036058;28;20018;-67
2022/05/04 01:56:07;;;;;;;3.10;1.80;;;14.00;99.90;;;;;;1036068;28;20029;-67
2022/05/04 01:56:38;;;;;;;6.43;2.33;;;13.90;99.90;;;;;;1035906;28;20021;-67
2022/05/04 01:57:08;;;;;;;3.35;2.10;;;13.90;99.90;;;;;;1036318;28;20570;-66
2022/05/04 01:57:39;;;;;;;2.93;1.80;;;13.90;99.90;;;;;;1035881;28;20026;-67
2022/05/04 01:58:11;;;;;;;4.30;1.93;;;13.90;99.90;;;;;;1035809;28;20104;-66
2022/05/04 01:58:42;;;;;;;3.13;1.60;;;13.90;99.90;;;;;;1035576;28;20018;-67
2022/05/04 01:59:12;;;;;;;4.47;2.03;;;13.90;99.90;;;;;;1035890;28;20022;-66
2022/05/04 01:59:43;;;;;;;4.70;1.70;;;13.90;99.90;;;;;;1035373;28;20018;-67
2022/05/04 02:00:14;;;;;;;3.17;1.80;;;13.90;99.90;;;;;;1031852;28;20117;-66
2022/05/04 02:00:44;;;;;;;6.17;2.00;;;13.90;99.90;;;;;;1031451;28;20022;-66
2022/05/04 02:01:15;;;;;;;3.90;1.90;;;13.90;99.90;;;;;;1031889;28;20105;-68
2022/05/04 02:01:46;;;;;;;7.07;1.97;;;13.90;99.90;;;;;;1035593;28;20044;-70
2022/05/04 02:02:17;;;;;;;4.78;2.03;;;13.90;99.90;;;;;;1040027;28;20029;-66
2022/05/04 02:02:47;;;;;;;3.67;1.47;;;13.90;99.90;;;;;;1039409;28;20078;-66
2022/05/04 02:03:18;;;;;;;5.13;1.63;;;13.90;99.90;;;;;;1039859;28;21087;-67
2022/05/04 02:03:49;;;;;;;4.53;1.80;;;13.90;99.90;;;;;;1039645;28;20108;-66
2022/05/04 02:04:19;;;;;;;5.13;1.97;;;13.90;99.90;;;;;;1039999;28;20033;-66
2022/05/04 02:04:50;;;;;;;5.73;2.27;;;13.90;99.90;;;;;;1039529;28;20416;-66
2022/05/04 02:05:21;;;;;;;4.70;2.47;;;13.90;99.90;;;;;;1040359;28;20453;-67
2022/05/04 02:05:52;;;;;;;2.85;1.75;;;13.90;99.90;;;;;;1039970;28;20084;-67
2022/05/04 02:06:23;;;;;;;3.70;1.70;;;13.90;99.90;;;;;;1040129;28;20037;-67
2022/05/04 02:06:54;;;;;;;3.97;1.73;;;13.90;99.90;;;;;;1040161;28;20018;-67
2022/05/04 02:07:25;;;;;;;4.82;1.83;;;13.90;99.90;;;;;;1039589;28;20021;-67
2022/05/04 02:07:56;;;;;;;4.70;1.90;;;13.90;99.90;;;;;;1039912;28;20075;-67
2022/05/04 02:08:27;;;;;;;4.97;2.27;;;13.90;99.90;;;;;;1039805;28;20020;-67
2022/05/04 02:08:58;;;;;;;2.90;1.70;;;13.80;99.90;;;;;;1039805;28;20171;-67
2022/05/04 02:09:29;;;;;;;4.75;2.45;;;13.80;99.90;;;;;;1040138;28;20025;-67
2022/05/04 02:10:00;;;;;;;5.03;1.88;;;13.80;99.90;;;;;;1040014;28;20303;-67
2022/05/04 02:10:30;;;;;;;4.63;2.17;;;13.80;99.90;;;;;;1039667;28;20575;-67
2022/05/04 02:11:01;;;;;;;6.13;2.13;;;13.80;99.90;;;;;;1039575;28;20021;-70
2022/05/04 02:11:33;;;;;;;3.03;1.85;;;13.80;99.90;;;;;;1035410;28;20021;-67
2022/05/04 02:12:05;;;;;;;4.97;1.98;;;13.80;99.90;;;;;;1035929;28;20041;-68
2022/05/04 02:12:36;;;;;;;2.78;1.85;;;13.80;99.90;;;;;;1039741;28;20016;-66
2022/05/04 02:13:06;;;;;;;6.93;2.03;;;13.80;99.90;;;;;;1039566;28;20373;-67
2022/05/04 02:13:37;;;;;;;3.37;2.20;;;13.80;99.90;;;;;;1035588;28;20413;-67
2022/05/04 02:14:07;;;;;;;3.07;1.70;;;13.80;99.90;;;;;;1035875;28;20024;-65
2022/05/04 02:14:38;;;;;;;3.23;1.90;;;13.80;99.90;;;;;;1039699;28;20075;-66
2022/05/04 02:15:11;;;;;;;4.60;2.28;;;13.80;99.90;;;;;;1039839;28;20042;-65
2022/05/04 02:15:41;;;;;;;4.22;1.95;;;13.90;99.90;;;;;;1039883;28;20405;-66
2022/05/04 02:16:12;;;;;;;4.80;2.37;;;13.80;99.90;;;;;;1040086;28;20009;-66
2022/05/04 02:16:42;;;;;;;3.97;1.77;;;13.90;99.90;;;;;;1039989;28;20182;-66
2022/05/04 02:17:13;;;;;;;4.23;2.17;;;13.90;99.90;;;;;;1040153;28;20013;-67
2022/05/04 02:17:43;;;;;;;4.00;1.87;;;13.90;99.90;;;;;;1039851;28;20044;-67
2022/05/04 02:18:14;;;;;;;3.10;2.23;;;13.90;99.90;;;;;;1039785;28;20116;-66
2022/05/04 02:18:44;;;;;;;4.30;1.67;;;13.90;99.90;;;;;;1039592;28;20063;-67
2022/05/04 02:19:15;;;;;;;3.37;1.80;;;13.80;99.90;;;;;;1039792;28;20013;-68
2022/05/04 02:19:45;;;;;;;4.43;2.30;;;13.80;99.90;;;;;;1039312;28;20111;-66
2022/05/04 02:20:16;;;;;;;3.50;1.87;;;13.80;99.90;;;;;;1039742;28;20452;-67
2022/05/04 02:20:47;;;;;;;5.47;2.27;;;13.80;99.90;;;;;;1035375;28;20078;-66
2022/05/04 02:21:18;;;;;;;5.33;1.60;;;13.80;99.90;;;;;;1035694;28;20076;-68
2022/05/04 02:21:48;;;;;;;4.27;2.50;;;13.80;99.90;;;;;;1035396;28;20377;-66
2022/05/04 02:22:19;;;;;;;4.27;2.03;;;13.80;99.90;;;;;;1039771;28;20345;-67
2022/05/04 02:22:49;;;;;;;5.83;2.40;;;13.80;99.90;;;;;;1039618;28;20093;-66
2022/05/04 02:23:20;;;;;;;4.53;1.90;;;13.80;99.90;;;;;;1039807;28;20462;-67
2022/05/04 02:23:51;;;;;;;3.83;2.00;;;13.80;99.90;;;;;;1039487;28;20484;-68
2022/05/04 02:24:21;;;;;;;3.00;1.70;;;13.80;99.90;;;;;;1039748;28;20107;-68
2022/05/04 02:24:52;;;;;;;3.67;1.87;;;13.80;99.90;;;;;;1039635;28;20461;-66
2022/05/04 02:25:23;;;;;;;6.13;1.90;;;13.80;99.90;;;;;;1039691;28;20021;-68
2022/05/04 02:25:53;;;;;;;4.07;1.83;;;13.80;99.90;;;;;;1039653;28;20064;-68
2022/05/04 02:26:24;;;;;;;4.67;2.20;;;13.80;99.90;;;;;;1039816;28;20633;-71
2022/05/04 02:26:55;;;;;;;5.13;1.80;;;13.80;99.90;;;;;;1039287;28;20107;-67
2022/05/04 02:27:25;;;;;;;3.90;2.23;;;13.80;99.90;;;;;;1035699;28;20010;-65
2022/05/04 02:27:56;;;;;;;5.67;1.60;;;13.80;99.90;;;;;;1035739;28;20010;-66
2022/05/04 02:28:26;;;;;;;5.67;1.90;;;13.80;99.90;;;;;;1035513;28;20449;-66
2022/05/04 02:28:57;;;;;;;3.70;1.47;;;13.80;99.90;;;;;;1039646;28;20095;-67
2022/05/04 02:29:29;;;;;;;3.60;1.80;;;13.80;99.90;;;;;;1039582;28;20385;-65
2022/05/04 02:29:59;;;;;;;5.82;2.20;;;13.80;99.90;;;;;;1039595;28;20113;-66
2022/05/04 02:30:30;;;;;;;4.53;2.27;;;13.80;99.90;;;;;;1035592;28;20113;-66
2022/05/04 02:31:00;;;;;;;2.57;1.70;;;13.80;99.90;;;;;;1035645;28;20009;-66
2022/05/04 02:31:31;;;;;;;8.07;2.07;;;13.80;99.90;;;;;;1039472;28;20041;-67
2022/05/04 02:32:02;;;;;;;3.97;2.03;;;13.80;99.90;;;;;;1038949;28;20480;-67
2022/05/04 02:32:32;;;;;;;4.00;1.90;;;13.80;99.90;;;;;;1039383;28;20068;-66
2022/05/04 02:33:03;;;;;;;3.97;1.93;;;13.80;99.90;;;;;;1039707;28;20480;-67
2022/05/04 02:33:33;;;;;;;5.27;2.07;;;13.80;99.90;;;;;;1039554;28;20457;-66
2022/05/04 02:34:04;;;;;;;5.70;2.27;;;13.80;99.90;;;;;;1039503;28;20108;-66
2022/05/04 02:37:54;;;;;;;3.60;1.47;;;13.80;99.90;;;;;;1040083;28;20033;-66
2022/05/04 02:37:56;;;;;;;3.90;1.52;;;13.70;99.90;;;;;;1035735;28;20057;-67
2022/05/04 02:38:27;;;;;;;4.28;2.15;;;13.70;99.90;;;;;;1036639;28;20036;-67
2022/05/04 02:38:58;;;;;;;4.83;2.27;;;13.70;99.90;;;;;;1040016;28;20022;-66
2022/05/04 02:39:28;;;;;;;3.73;1.90;;;13.70;99.90;;;;;;1039961;28;20010;-67
2022/05/04 02:39:59;;;;;;;5.07;2.07;;;13.80;99.90;;;;;;1037232;28;20021;-67
2022/05/04 02:40:29;;;;;;;3.10;2.07;;;13.70;99.90;;;;;;1035363;28;20014;-66
2022/05/04 02:41:00;;;;;;;5.37;2.10;;;13.70;99.90;;;;;;1035642;28;20041;-66
2022/05/04 02:41:30;;;;;;;4.23;1.50;;;13.70;99.90;;;;;;1035436;28;20036;-68
2022/05/04 02:42:01;;;;;;;3.13;1.83;;;13.70;99.90;;;;;;1035476;28;20097;-67
2022/05/04 02:42:31;;;;;;;3.17;2.00;;;13.70;99.90;;;;;;1035976;28;20021;-67
2022/05/04 02:43:04;;;;;;;3.13;1.63;;;13.70;99.90;;;;;;1035485;28;20657;-66
2022/05/04 02:43:34;;;;;;;5.13;2.08;;;13.70;99.90;;;;;;1035860;28;20014;-65
2022/05/04 02:44:05;;;;;;;4.83;1.80;;;13.70;99.90;;;;;;1035816;28;20014;-66
2022/05/04 02:44:35;;;;;;;5.13;2.57;;;13.70;99.90;;;;;;1035981;28;20431;-66
2022/05/04 02:45:07;;;;;;;3.07;1.77;;;13.70;99.90;;;;;;1035787;28;20465;-66
2022/05/04 02:45:37;;;;;;;4.55;1.88;;;13.70;99.90;;;;;;1035850;28;20049;-66
2022/05/04 02:46:18;;;;;;;6.43;2.60;;;13.70;99.90;;;;;;1035270;28;20018;-66